sensor_id;sensor_type;location;lat;lon;timestamp;P1;durP1;ratioP1;P2;durP2;ratioP2
11123;SDS011;5616;42.692;23.312;2023-04-03T00:01:23;2.20;;;1.70;;
11123;SDS011;5616;42.692;23.312;2023-04-03T00:03:50;3.53;;;2.53;;
11123;SDS011;5616;42.692;23.312;2023-04-03T00:06:18;2.97;;;2.30;;
11123;SDS011;5616;42.692;23.312;2023-04-03T00:08:46;4.63;;;2.37;;
11123;SDS011;5616;42.692;23.312;2023-04-03T00:11:13;3.57;;;2.40;;
11123;SDS011;5616;42.692;23.312;2023-04-03T00:13:40;4.13;;;2.73;;
11123;SDS011;5616;42.692;23.312;2023-04-03T00:16:07;2.77;;;2.30;;
11123;SDS011;5616;42.692;23.312;2023-04-03T00:18:35;3.30;;;2.37;;
11123;SDS011;5616;42.692;23.312;2023-04-03T00:21:03;4.27;;;2.27;;
11123;SDS011;5616;42.692;23.312;2023-04-03T00:23:32;4.77;;;2.70;;
11123;SDS011;5616;42.692;23.312;2023-04-03T00:25:59;3.00;;;2.70;;
11123;SDS011;5616;42.692;23.312;2023-04-03T00:28:26;3.13;;;2.20;;
11123;SDS011;5616;42.692;23.312;2023-04-03T00:30:53;2.87;;;2.50;;
11123;SDS011;5616;42.692;23.312;2023-04-03T00:33:19;4.87;;;3.10;;
11123;SDS011;5616;42.692;23.312;2023-04-03T00:35:47;6.73;;;3.50;;
11123;SDS011;5616;42.692;23.312;2023-04-03T00:38:14;6.83;;;4.30;;
11123;SDS011;5616;42.692;23.312;2023-04-03T00:40:43;6.37;;;4.60;;
11123;SDS011;5616;42.692;23.312;2023-04-03T00:43:12;6.97;;;4.60;;
11123;SDS011;5616;42.692;23.312;2023-04-03T00:45:41;7.23;;;4.00;;
11123;SDS011;5616;42.692;23.312;2023-04-03T00:48:10;7.90;;;4.10;;
11123;SDS011;5616;42.692;23.312;2023-04-03T00:50:40;5.97;;;3.80;;
11123;SDS011;5616;42.692;23.312;2023-04-03T00:53:09;8.33;;;3.97;;
11123;SDS011;5616;42.692;23.312;2023-04-03T00:55:39;12.27;;;4.43;;
11123;SDS011;5616;42.692;23.312;2023-04-03T00:58:07;6.50;;;4.17;;
11123;SDS011;5616;42.692;23.312;2023-04-03T01:00:35;6.00;;;3.90;;
11123;SDS011;5616;42.692;23.312;2023-04-03T01:03:05;8.90;;;3.93;;
11123;SDS011;5616;42.692;23.312;2023-04-03T01:05:32;8.90;;;3.40;;
11123;SDS011;5616;42.692;23.312;2023-04-03T01:07:59;4.87;;;3.07;;
11123;SDS011;5616;42.692;23.312;2023-04-03T01:10:27;4.37;;;3.20;;
11123;SDS011;5616;42.692;23.312;2023-04-03T01:12:56;4.77;;;2.90;;
11123;SDS011;5616;42.692;23.312;2023-04-03T01:15:26;3.90;;;2.70;;
11123;SDS011;5616;42.692;23.312;2023-04-03T01:17:55;4.87;;;2.73;;
11123;SDS011;5616;42.692;23.312;2023-04-03T01:20:34;5.67;;;3.00;;
11123;SDS011;5616;42.692;23.312;2023-04-03T01:23:25;3.17;;;2.20;;
11123;SDS011;5616;42.692;23.312;2023-04-03T01:26:07;5.70;;;2.50;;
11123;SDS011;5616;42.692;23.312;2023-04-03T01:28:35;4.03;;;2.50;;
11123;SDS011;5616;42.692;23.312;2023-04-03T01:31:06;3.13;;;2.50;;
11123;SDS011;5616;42.692;23.312;2023-04-03T01:33:43;3.33;;;2.37;;
11123;SDS011;5616;42.692;23.312;2023-04-03T01:36:17;3.00;;;2.20;;
11123;SDS011;5616;42.692;23.312;2023-04-03T01:38:46;3.77;;;2.50;;
11123;SDS011;5616;42.692;23.312;2023-04-03T01:41:13;3.77;;;2.70;;
11123;SDS011;5616;42.692;23.312;2023-04-03T01:43:41;4.53;;;2.70;;
11123;SDS011;5616;42.692;23.312;2023-04-03T01:46:08;4.73;;;2.90;;
11123;SDS011;5616;42.692;23.312;2023-04-03T01:48:35;3.90;;;3.00;;
11123;SDS011;5616;42.692;23.312;2023-04-03T01:51:04;2.97;;;2.50;;
11123;SDS011;5616;42.692;23.312;2023-04-03T01:53:31;3.20;;;2.70;;
11123;SDS011;5616;42.692;23.312;2023-04-03T01:55:58;3.63;;;2.70;;
11123;SDS011;5616;42.692;23.312;2023-04-03T01:58:25;3.70;;;2.57;;
11123;SDS011;5616;42.692;23.312;2023-04-03T02:00:52;3.17;;;2.40;;
11123;SDS011;5616;42.692;23.312;2023-04-03T02:03:19;6.13;;;2.60;;
11123;SDS011;5616;42.692;23.312;2023-04-03T02:05:46;3.03;;;2.50;;
11123;SDS011;5616;42.692;23.312;2023-04-03T02:08:16;3.60;;;2.30;;
11123;SDS011;5616;42.692;23.312;2023-04-03T02:10:43;5.13;;;2.63;;
11123;SDS011;5616;42.692;23.312;2023-04-03T02:13:10;2.43;;;2.23;;
11123;SDS011;5616;42.692;23.312;2023-04-03T02:15:37;3.43;;;2.40;;
11123;SDS011;5616;42.692;23.312;2023-04-03T02:18:04;3.43;;;2.47;;
11123;SDS011;5616;42.692;23.312;2023-04-03T02:20:31;3.53;;;2.60;;
11123;SDS011;5616;42.692;23.312;2023-04-03T02:22:58;2.60;;;2.30;;
11123;SDS011;5616;42.692;23.312;2023-04-03T02:25:27;3.53;;;2.30;;
11123;SDS011;5616;42.692;23.312;2023-04-03T02:27:54;3.20;;;2.17;;
11123;SDS011;5616;42.692;23.312;2023-04-03T02:30:20;2.30;;;2.10;;
11123;SDS011;5616;42.692;23.312;2023-04-03T02:32:48;2.47;;;2.20;;
11123;SDS011;5616;42.692;23.312;2023-04-03T02:35:15;3.13;;;2.30;;
11123;SDS011;5616;42.692;23.312;2023-04-03T02:37:42;4.17;;;2.13;;
11123;SDS011;5616;42.692;23.312;2023-04-03T02:40:09;4.33;;;2.33;;
11123;SDS011;5616;42.692;23.312;2023-04-03T02:42:38;3.60;;;2.33;;
11123;SDS011;5616;42.692;23.312;2023-04-03T02:45:06;3.60;;;2.40;;
11123;SDS011;5616;42.692;23.312;2023-04-03T02:47:33;2.80;;;2.50;;
11123;SDS011;5616;42.692;23.312;2023-04-03T02:50:00;3.03;;;2.37;;
11123;SDS011;5616;42.692;23.312;2023-04-03T02:52:27;4.43;;;2.87;;
11123;SDS011;5616;42.692;23.312;2023-04-03T02:54:56;3.30;;;2.57;;
11123;SDS011;5616;42.692;23.312;2023-04-03T02:57:23;4.30;;;2.80;;
11123;SDS011;5616;42.692;23.312;2023-04-03T02:59:51;4.90;;;3.33;;
11123;SDS011;5616;42.692;23.312;2023-04-03T03:02:18;4.40;;;3.10;;
11123;SDS011;5616;42.692;23.312;2023-04-03T03:04:45;4.17;;;2.87;;
11123;SDS011;5616;42.692;23.312;2023-04-03T03:07:12;3.47;;;3.03;;
11123;SDS011;5616;42.692;23.312;2023-04-03T03:09:40;4.20;;;3.00;;
11123;SDS011;5616;42.692;23.312;2023-04-03T03:12:06;4.87;;;2.97;;
11123;SDS011;5616;42.692;23.312;2023-04-03T03:14:33;4.83;;;3.20;;
11123;SDS011;5616;42.692;23.312;2023-04-03T03:17:02;5.20;;;2.83;;
11123;SDS011;5616;42.692;23.312;2023-04-03T03:19:29;3.90;;;2.93;;
11123;SDS011;5616;42.692;23.312;2023-04-03T03:21:56;3.30;;;2.83;;
11123;SDS011;5616;42.692;23.312;2023-04-03T03:24:23;4.13;;;2.83;;
11123;SDS011;5616;42.692;23.312;2023-04-03T03:26:50;4.40;;;3.10;;
11123;SDS011;5616;42.692;23.312;2023-04-03T03:29:16;4.63;;;3.13;;
11123;SDS011;5616;42.692;23.312;2023-04-03T03:31:44;4.13;;;3.20;;
11123;SDS011;5616;42.692;23.312;2023-04-03T03:34:12;3.70;;;2.90;;
11123;SDS011;5616;42.692;23.312;2023-04-03T03:36:39;3.67;;;3.20;;
11123;SDS011;5616;42.692;23.312;2023-04-03T03:39:07;3.77;;;2.80;;
11123;SDS011;5616;42.692;23.312;2023-04-03T03:41:33;4.07;;;3.00;;
11123;SDS011;5616;42.692;23.312;2023-04-03T03:44:01;4.77;;;3.37;;
11123;SDS011;5616;42.692;23.312;2023-04-03T03:46:30;4.63;;;3.10;;
11123;SDS011;5616;42.692;23.312;2023-04-03T03:48:57;7.77;;;3.50;;
11123;SDS011;5616;42.692;23.312;2023-04-03T03:51:25;5.80;;;3.47;;
11123;SDS011;5616;42.692;23.312;2023-04-03T03:53:53;7.93;;;5.00;;
11123;SDS011;5616;42.692;23.312;2023-04-03T03:56:20;9.97;;;6.00;;
11123;SDS011;5616;42.692;23.312;2023-04-03T03:58:47;14.20;;;6.40;;
11123;SDS011;5616;42.692;23.312;2023-04-03T04:01:14;10.27;;;5.53;;
11123;SDS011;5616;42.692;23.312;2023-04-03T04:03:45;11.40;;;6.50;;
11123;SDS011;5616;42.692;23.312;2023-04-03T04:06:16;10.43;;;6.43;;
11123;SDS011;5616;42.692;23.312;2023-04-03T04:08:45;11.37;;;6.33;;
11123;SDS011;5616;42.692;23.312;2023-04-03T04:11:13;10.77;;;6.50;;
11123;SDS011;5616;42.692;23.312;2023-04-03T04:13:42;10.20;;;6.60;;
11123;SDS011;5616;42.692;23.312;2023-04-03T04:16:11;9.10;;;6.27;;
11123;SDS011;5616;42.692;23.312;2023-04-03T04:18:38;11.20;;;6.50;;
11123;SDS011;5616;42.692;23.312;2023-04-03T04:21:05;12.17;;;6.77;;
11123;SDS011;5616;42.692;23.312;2023-04-03T04:23:32;10.40;;;6.53;;
11123;SDS011;5616;42.692;23.312;2023-04-03T04:26:01;10.57;;;7.10;;
11123;SDS011;5616;42.692;23.312;2023-04-03T04:28:31;10.00;;;6.73;;
11123;SDS011;5616;42.692;23.312;2023-04-03T04:31:00;10.50;;;6.47;;
11123;SDS011;5616;42.692;23.312;2023-04-03T04:33:27;11.60;;;5.77;;
11123;SDS011;5616;42.692;23.312;2023-04-03T04:35:57;13.30;;;6.37;;
11123;SDS011;5616;42.692;23.312;2023-04-03T04:38:24;9.20;;;6.27;;
11123;SDS011;5616;42.692;23.312;2023-04-03T04:40:52;17.00;;;6.77;;
11123;SDS011;5616;42.692;23.312;2023-04-03T04:43:21;12.27;;;6.80;;
11123;SDS011;5616;42.692;23.312;2023-04-03T04:45:59;9.17;;;6.10;;
11123;SDS011;5616;42.692;23.312;2023-04-03T04:48:27;10.17;;;6.07;;
11123;SDS011;5616;42.692;23.312;2023-04-03T04:50:54;10.33;;;6.57;;
11123;SDS011;5616;42.692;23.312;2023-04-03T04:53:21;11.00;;;6.37;;
11123;SDS011;5616;42.692;23.312;2023-04-03T04:55:47;14.80;;;6.10;;
11123;SDS011;5616;42.692;23.312;2023-04-03T04:58:14;11.60;;;6.40;;
11123;SDS011;5616;42.692;23.312;2023-04-03T05:00:43;12.23;;;6.70;;
11123;SDS011;5616;42.692;23.312;2023-04-03T05:03:10;13.00;;;7.40;;
11123;SDS011;5616;42.692;23.312;2023-04-03T05:05:37;16.30;;;7.00;;
11123;SDS011;5616;42.692;23.312;2023-04-03T05:08:04;18.67;;;7.33;;
11123;SDS011;5616;42.692;23.312;2023-04-03T05:10:31;15.83;;;7.57;;
11123;SDS011;5616;42.692;23.312;2023-04-03T05:12:58;21.00;;;7.97;;
11123;SDS011;5616;42.692;23.312;2023-04-03T05:15:25;17.70;;;9.23;;
11123;SDS011;5616;42.692;23.312;2023-04-03T05:17:54;17.67;;;8.90;;
11123;SDS011;5616;42.692;23.312;2023-04-03T05:20:21;21.37;;;8.57;;
11123;SDS011;5616;42.692;23.312;2023-04-03T05:22:48;16.93;;;8.33;;
11123;SDS011;5616;42.692;23.312;2023-04-03T05:25:16;23.60;;;8.73;;
11123;SDS011;5616;42.692;23.312;2023-04-03T05:27:43;11.73;;;7.60;;
11123;SDS011;5616;42.692;23.312;2023-04-03T05:30:11;13.63;;;7.97;;
11123;SDS011;5616;42.692;23.312;2023-04-03T05:32:40;15.13;;;8.17;;
11123;SDS011;5616;42.692;23.312;2023-04-03T05:35:15;18.50;;;7.80;;
11123;SDS011;5616;42.692;23.312;2023-04-03T05:37:44;22.63;;;8.13;;
11123;SDS011;5616;42.692;23.312;2023-04-03T05:40:12;13.77;;;7.63;;
11123;SDS011;5616;42.692;23.312;2023-04-03T05:42:42;15.13;;;8.10;;
11123;SDS011;5616;42.692;23.312;2023-04-03T05:45:09;17.70;;;8.77;;
11123;SDS011;5616;42.692;23.312;2023-04-03T05:47:37;15.10;;;8.50;;
11123;SDS011;5616;42.692;23.312;2023-04-03T05:50:05;16.97;;;9.10;;
11123;SDS011;5616;42.692;23.312;2023-04-03T05:52:35;16.63;;;8.87;;
11123;SDS011;5616;42.692;23.312;2023-04-03T05:55:04;19.57;;;9.87;;
11123;SDS011;5616;42.692;23.312;2023-04-03T05:57:33;16.77;;;9.47;;
11123;SDS011;5616;42.692;23.312;2023-04-03T06:00:01;16.73;;;8.90;;
11123;SDS011;5616;42.692;23.312;2023-04-03T06:02:29;17.23;;;8.93;;
11123;SDS011;5616;42.692;23.312;2023-04-03T06:04:57;18.13;;;8.70;;
11123;SDS011;5616;42.692;23.312;2023-04-03T06:07:24;15.77;;;7.90;;
11123;SDS011;5616;42.692;23.312;2023-04-03T06:09:55;16.87;;;9.67;;
11123;SDS011;5616;42.692;23.312;2023-04-03T06:12:23;16.03;;;9.53;;
11123;SDS011;5616;42.692;23.312;2023-04-03T06:14:50;18.70;;;9.37;;
11123;SDS011;5616;42.692;23.312;2023-04-03T06:17:17;20.40;;;9.70;;
11123;SDS011;5616;42.692;23.312;2023-04-03T06:19:44;18.10;;;9.50;;
11123;SDS011;5616;42.692;23.312;2023-04-03T06:22:11;14.00;;;8.27;;
11123;SDS011;5616;42.692;23.312;2023-04-03T06:24:38;12.27;;;8.50;;
11123;SDS011;5616;42.692;23.312;2023-04-03T06:27:07;16.37;;;7.93;;
11123;SDS011;5616;42.692;23.312;2023-04-03T06:29:34;13.83;;;7.30;;
11123;SDS011;5616;42.692;23.312;2023-04-03T06:32:02;13.33;;;7.17;;
11123;SDS011;5616;42.692;23.312;2023-04-03T06:34:29;10.80;;;6.80;;
11123;SDS011;5616;42.692;23.312;2023-04-03T06:36:56;9.97;;;6.83;;
11123;SDS011;5616;42.692;23.312;2023-04-03T06:39:23;11.37;;;6.90;;
11123;SDS011;5616;42.692;23.312;2023-04-03T06:41:50;14.30;;;6.67;;
11123;SDS011;5616;42.692;23.312;2023-04-03T06:44:27;14.43;;;6.70;;
11123;SDS011;5616;42.692;23.312;2023-04-03T06:46:53;11.33;;;7.20;;
11123;SDS011;5616;42.692;23.312;2023-04-03T06:49:20;9.10;;;6.63;;
11123;SDS011;5616;42.692;23.312;2023-04-03T06:51:47;11.50;;;6.57;;
11123;SDS011;5616;42.692;23.312;2023-04-03T06:54:14;11.17;;;6.53;;
11123;SDS011;5616;42.692;23.312;2023-04-03T06:56:41;8.93;;;6.27;;
11123;SDS011;5616;42.692;23.312;2023-04-03T06:59:09;16.10;;;7.27;;
11123;SDS011;5616;42.692;23.312;2023-04-03T07:01:38;9.70;;;6.13;;
11123;SDS011;5616;42.692;23.312;2023-04-03T07:04:05;9.37;;;6.47;;
11123;SDS011;5616;42.692;23.312;2023-04-03T07:06:33;14.97;;;7.13;;
11123;SDS011;5616;42.692;23.312;2023-04-03T07:09:00;12.87;;;6.03;;
11123;SDS011;5616;42.692;23.312;2023-04-03T07:11:28;11.43;;;5.77;;
11123;SDS011;5616;42.692;23.312;2023-04-03T07:13:54;9.93;;;6.57;;
11123;SDS011;5616;42.692;23.312;2023-04-03T07:16:21;11.17;;;7.03;;
11123;SDS011;5616;42.692;23.312;2023-04-03T07:18:49;11.77;;;6.87;;
11123;SDS011;5616;42.692;23.312;2023-04-03T07:21:16;9.53;;;6.20;;
11123;SDS011;5616;42.692;23.312;2023-04-03T07:23:43;17.77;;;6.40;;
11123;SDS011;5616;42.692;23.312;2023-04-03T07:26:10;9.47;;;6.93;;
11123;SDS011;5616;42.692;23.312;2023-04-03T07:28:37;14.87;;;7.00;;
11123;SDS011;5616;42.692;23.312;2023-04-03T07:31:06;11.20;;;7.30;;
11123;SDS011;5616;42.692;23.312;2023-04-03T07:33:36;18.53;;;7.30;;
11123;SDS011;5616;42.692;23.312;2023-04-03T07:36:05;10.13;;;6.93;;
11123;SDS011;5616;42.692;23.312;2023-04-03T07:38:33;8.80;;;5.00;;
11123;SDS011;5616;42.692;23.312;2023-04-03T07:41:00;10.33;;;5.70;;
11123;SDS011;5616;42.692;23.312;2023-04-03T07:43:27;11.60;;;6.20;;
11123;SDS011;5616;42.692;23.312;2023-04-03T07:45:54;11.30;;;7.30;;
11123;SDS011;5616;42.692;23.312;2023-04-03T07:48:21;11.67;;;8.37;;
11123;SDS011;5616;42.692;23.312;2023-04-03T07:50:49;18.60;;;8.73;;
11123;SDS011;5616;42.692;23.312;2023-04-03T07:53:17;10.33;;;7.60;;
11123;SDS011;5616;42.692;23.312;2023-04-03T07:55:45;13.37;;;8.03;;
11123;SDS011;5616;42.692;23.312;2023-04-03T07:58:13;11.93;;;7.70;;
11123;SDS011;5616;42.692;23.312;2023-04-03T08:00:41;14.80;;;8.07;;
11123;SDS011;5616;42.692;23.312;2023-04-03T08:03:09;12.97;;;8.63;;
11123;SDS011;5616;42.692;23.312;2023-04-03T08:05:37;13.97;;;8.40;;
11123;SDS011;5616;42.692;23.312;2023-04-03T08:08:06;15.03;;;9.20;;
11123;SDS011;5616;42.692;23.312;2023-04-03T08:10:34;15.43;;;8.50;;
11123;SDS011;5616;42.692;23.312;2023-04-03T08:13:02;18.73;;;7.97;;
11123;SDS011;5616;42.692;23.312;2023-04-03T08:15:29;12.30;;;7.93;;
11123;SDS011;5616;42.692;23.312;2023-04-03T08:17:57;12.57;;;7.50;;
11123;SDS011;5616;42.692;23.312;2023-04-03T08:20:24;13.13;;;7.63;;
11123;SDS011;5616;42.692;23.312;2023-04-03T08:22:51;15.37;;;7.37;;
11123;SDS011;5616;42.692;23.312;2023-04-03T08:25:18;14.03;;;7.73;;
11123;SDS011;5616;42.692;23.312;2023-04-03T08:27:46;10.43;;;7.23;;
11123;SDS011;5616;42.692;23.312;2023-04-03T08:30:13;11.57;;;7.23;;
11123;SDS011;5616;42.692;23.312;2023-04-03T08:32:40;10.47;;;7.73;;
11123;SDS011;5616;42.692;23.312;2023-04-03T08:35:08;11.97;;;6.60;;
11123;SDS011;5616;42.692;23.312;2023-04-03T08:37:35;14.03;;;6.67;;
11123;SDS011;5616;42.692;23.312;2023-04-03T08:40:03;9.90;;;6.77;;
11123;SDS011;5616;42.692;23.312;2023-04-03T08:42:35;17.03;;;9.23;;
11123;SDS011;5616;42.692;23.312;2023-04-03T08:45:14;9.37;;;7.70;;
11123;SDS011;5616;42.692;23.312;2023-04-03T08:47:46;28.37;;;16.23;;
11123;SDS011;5616;42.692;23.312;2023-04-03T08:50:19;15.37;;;10.07;;
11123;SDS011;5616;42.692;23.312;2023-04-03T08:52:53;17.53;;;10.40;;
11123;SDS011;5616;42.692;23.312;2023-04-03T08:55:24;17.90;;;10.73;;
11123;SDS011;5616;42.692;23.312;2023-04-03T08:57:57;24.60;;;12.20;;
11123;SDS011;5616;42.692;23.312;2023-04-03T09:00:30;9.87;;;7.10;;
11123;SDS011;5616;42.692;23.312;2023-04-03T09:03:12;14.80;;;10.20;;
11123;SDS011;5616;42.692;23.312;2023-04-03T09:05:41;14.67;;;9.47;;
11123;SDS011;5616;42.692;23.312;2023-04-03T09:08:15;18.37;;;10.67;;
11123;SDS011;5616;42.692;23.312;2023-04-03T09:10:49;16.17;;;10.30;;
11123;SDS011;5616;42.692;23.312;2023-04-03T09:13:21;18.50;;;10.80;;
11123;SDS011;5616;42.692;23.312;2023-04-03T09:15:55;13.30;;;10.17;;
11123;SDS011;5616;42.692;23.312;2023-04-03T09:18:24;18.00;;;9.70;;
11123;SDS011;5616;42.692;23.312;2023-04-03T09:20:56;26.20;;;14.83;;
11123;SDS011;5616;42.692;23.312;2023-04-03T09:23:27;17.77;;;10.17;;
11123;SDS011;5616;42.692;23.312;2023-04-03T09:26:01;20.00;;;12.90;;
11123;SDS011;5616;42.692;23.312;2023-04-03T09:28:33;19.20;;;11.83;;
11123;SDS011;5616;42.692;23.312;2023-04-03T09:31:10;20.30;;;9.47;;
11123;SDS011;5616;42.692;23.312;2023-04-03T09:33:44;22.07;;;12.13;;
11123;SDS011;5616;42.692;23.312;2023-04-03T09:36:12;13.80;;;8.43;;
11123;SDS011;5616;42.692;23.312;2023-04-03T09:38:39;12.30;;;8.40;;
11123;SDS011;5616;42.692;23.312;2023-04-03T09:41:06;18.13;;;9.70;;
11123;SDS011;5616;42.692;23.312;2023-04-03T09:43:34;17.30;;;9.27;;
11123;SDS011;5616;42.692;23.312;2023-04-03T09:48:57;12.97;;;8.70;;
11123;SDS011;5616;42.692;23.312;2023-04-03T09:51:26;12.33;;;9.37;;
11123;SDS011;5616;42.692;23.312;2023-04-03T09:53:53;16.27;;;9.57;;
11123;SDS011;5616;42.692;23.312;2023-04-03T09:56:22;15.97;;;10.00;;
11123;SDS011;5616;42.692;23.312;2023-04-03T09:58:52;15.63;;;9.23;;
11123;SDS011;5616;42.692;23.312;2023-04-03T10:01:36;13.40;;;9.03;;
11123;SDS011;5616;42.692;23.312;2023-04-03T10:04:06;12.67;;;9.03;;
11123;SDS011;5616;42.692;23.312;2023-04-03T10:06:36;10.07;;;6.60;;
11123;SDS011;5616;42.692;23.312;2023-04-03T10:09:07;8.87;;;5.13;;
11123;SDS011;5616;42.692;23.312;2023-04-03T10:11:56;13.37;;;7.73;;
11123;SDS011;5616;42.692;23.312;2023-04-03T10:14:26;11.97;;;7.27;;
11123;SDS011;5616;42.692;23.312;2023-04-03T10:16:56;9.07;;;6.70;;
11123;SDS011;5616;42.692;23.312;2023-04-03T10:19:34;12.70;;;8.03;;
11123;SDS011;5616;42.692;23.312;2023-04-03T10:22:09;16.73;;;8.30;;
11123;SDS011;5616;42.692;23.312;2023-04-03T10:24:47;23.97;;;12.23;;
11123;SDS011;5616;42.692;23.312;2023-04-03T10:27:21;12.27;;;7.33;;
11123;SDS011;5616;42.692;23.312;2023-04-03T10:29:59;34.07;;;15.37;;
11123;SDS011;5616;42.692;23.312;2023-04-03T10:32:44;27.00;;;13.40;;
11123;SDS011;5616;42.692;23.312;2023-04-03T10:35:20;35.87;;;15.23;;
11123;SDS011;5616;42.692;23.312;2023-04-03T10:38:01;25.07;;;12.03;;
11123;SDS011;5616;42.692;23.312;2023-04-03T10:40:34;22.10;;;11.50;;
11123;SDS011;5616;42.692;23.312;2023-04-03T10:43:13;24.30;;;12.93;;
11123;SDS011;5616;42.692;23.312;2023-04-03T10:45:57;14.00;;;6.47;;
11123;SDS011;5616;42.692;23.312;2023-04-03T10:48:43;8.70;;;5.10;;
11123;SDS011;5616;42.692;23.312;2023-04-03T10:51:23;19.40;;;8.37;;
11123;SDS011;5616;42.692;23.312;2023-04-03T10:53:56;13.80;;;5.90;;
11123;SDS011;5616;42.692;23.312;2023-04-03T10:56:28;8.00;;;3.80;;
11123;SDS011;5616;42.692;23.312;2023-04-03T10:58:59;6.67;;;4.17;;
11123;SDS011;5616;42.692;23.312;2023-04-03T11:01:30;9.57;;;4.30;;
11123;SDS011;5616;42.692;23.312;2023-04-03T11:04:00;5.57;;;3.53;;
11123;SDS011;5616;42.692;23.312;2023-04-03T11:06:32;6.97;;;3.60;;
11123;SDS011;5616;42.692;23.312;2023-04-03T11:09:05;8.57;;;4.47;;
11123;SDS011;5616;42.692;23.312;2023-04-03T11:11:37;7.70;;;3.50;;
11123;SDS011;5616;42.692;23.312;2023-04-03T11:14:09;4.13;;;2.90;;
11123;SDS011;5616;42.692;23.312;2023-04-03T11:16:42;7.70;;;3.50;;
11123;SDS011;5616;42.692;23.312;2023-04-03T11:19:16;7.37;;;3.37;;
11123;SDS011;5616;42.692;23.312;2023-04-03T11:21:51;7.70;;;3.70;;
11123;SDS011;5616;42.692;23.312;2023-04-03T11:24:24;6.13;;;3.07;;
11123;SDS011;5616;42.692;23.312;2023-04-03T11:26:53;3.57;;;3.00;;
11123;SDS011;5616;42.692;23.312;2023-04-03T11:29:22;4.37;;;2.80;;
11123;SDS011;5616;42.692;23.312;2023-04-03T11:31:58;3.83;;;2.30;;
11123;SDS011;5616;42.692;23.312;2023-04-03T11:34:38;3.87;;;2.63;;
11123;SDS011;5616;42.692;23.312;2023-04-03T11:37:12;4.10;;;2.70;;
11123;SDS011;5616;42.692;23.312;2023-04-03T11:39:47;4.07;;;2.57;;
11123;SDS011;5616;42.692;23.312;2023-04-03T11:42:24;3.33;;;2.90;;
11123;SDS011;5616;42.692;23.312;2023-04-03T11:45:16;3.80;;;2.50;;
11123;SDS011;5616;42.692;23.312;2023-04-03T11:47:52;5.03;;;2.53;;
11123;SDS011;5616;42.692;23.312;2023-04-03T11:50:37;3.73;;;2.53;;
11123;SDS011;5616;42.692;23.312;2023-04-03T11:56:00;3.00;;;2.70;;
11123;SDS011;5616;42.692;23.312;2023-04-03T12:01:50;2.70;;;2.10;;
11123;SDS011;5616;42.692;23.312;2023-04-03T12:04:18;2.50;;;2.10;;
11123;SDS011;5616;42.692;23.312;2023-04-03T12:06:51;3.87;;;2.43;;
11123;SDS011;5616;42.692;23.312;2023-04-03T12:09:29;3.57;;;2.13;;
11123;SDS011;5616;42.692;23.312;2023-04-03T12:12:00;2.57;;;2.37;;
11123;SDS011;5616;42.692;23.312;2023-04-03T12:14:48;3.20;;;2.13;;
11123;SDS011;5616;42.692;23.312;2023-04-03T12:17:20;2.00;;;1.80;;
11123;SDS011;5616;42.692;23.312;2023-04-03T12:19:50;2.33;;;2.10;;
11123;SDS011;5616;42.692;23.312;2023-04-03T12:22:17;2.57;;;2.37;;
11123;SDS011;5616;42.692;23.312;2023-04-03T12:24:46;5.27;;;2.60;;
11123;SDS011;5616;42.692;23.312;2023-04-03T12:30:05;3.20;;;2.33;;
11123;SDS011;5616;42.692;23.312;2023-04-03T12:35:40;3.90;;;2.47;;
11123;SDS011;5616;42.692;23.312;2023-04-03T12:38:22;2.93;;;2.30;;
11123;SDS011;5616;42.692;23.312;2023-04-03T12:41:14;4.20;;;2.70;;
11123;SDS011;5616;42.692;23.312;2023-04-03T12:43:50;3.20;;;2.70;;
11123;SDS011;5616;42.692;23.312;2023-04-03T12:46:32;4.27;;;2.20;;
11123;SDS011;5616;42.692;23.312;2023-04-03T12:49:10;2.77;;;2.20;;
11123;SDS011;5616;42.692;23.312;2023-04-03T12:51:45;3.73;;;2.40;;
11123;SDS011;5616;42.692;23.312;2023-04-03T12:54:13;5.03;;;2.97;;
11123;SDS011;5616;42.692;23.312;2023-04-03T12:56:42;3.13;;;2.77;;
11123;SDS011;5616;42.692;23.312;2023-04-03T12:59:13;4.63;;;3.50;;
11123;SDS011;5616;42.692;23.312;2023-04-03T13:01:43;4.90;;;3.30;;
11123;SDS011;5616;42.692;23.312;2023-04-03T13:04:18;3.47;;;2.93;;
11123;SDS011;5616;42.692;23.312;2023-04-03T13:06:45;5.23;;;3.53;;
11123;SDS011;5616;42.692;23.312;2023-04-03T13:09:18;5.10;;;3.60;;
11123;SDS011;5616;42.692;23.312;2023-04-03T13:11:48;5.43;;;3.90;;
11123;SDS011;5616;42.692;23.312;2023-04-03T13:14:17;4.57;;;3.60;;
11123;SDS011;5616;42.692;23.312;2023-04-03T13:16:54;4.33;;;3.70;;
11123;SDS011;5616;42.692;23.312;2023-04-03T13:19:22;5.03;;;3.83;;
11123;SDS011;5616;42.692;23.312;2023-04-03T13:21:51;6.70;;;4.37;;
11123;SDS011;5616;42.692;23.312;2023-04-03T13:24:22;8.13;;;3.70;;
11123;SDS011;5616;42.692;23.312;2023-04-03T13:26:50;6.03;;;4.13;;
11123;SDS011;5616;42.692;23.312;2023-04-03T13:29:20;8.40;;;4.53;;
11123;SDS011;5616;42.692;23.312;2023-04-03T13:31:51;5.00;;;4.27;;
11123;SDS011;5616;42.692;23.312;2023-04-03T13:34:22;4.47;;;3.80;;
11123;SDS011;5616;42.692;23.312;2023-04-03T13:36:55;6.93;;;4.47;;
11123;SDS011;5616;42.692;23.312;2023-04-03T13:39:25;5.03;;;4.10;;
11123;SDS011;5616;42.692;23.312;2023-04-03T13:41:54;5.37;;;4.53;;
11123;SDS011;5616;42.692;23.312;2023-04-03T13:44:26;6.10;;;4.67;;
11123;SDS011;5616;42.692;23.312;2023-04-03T13:46:57;5.63;;;4.07;;
11123;SDS011;5616;42.692;23.312;2023-04-03T13:49:31;4.43;;;4.03;;
11123;SDS011;5616;42.692;23.312;2023-04-03T13:52:00;5.17;;;4.33;;
11123;SDS011;5616;42.692;23.312;2023-04-03T13:54:31;5.17;;;4.17;;
11123;SDS011;5616;42.692;23.312;2023-04-03T13:57:01;5.57;;;4.10;;
11123;SDS011;5616;42.692;23.312;2023-04-03T13:59:29;4.33;;;3.80;;
11123;SDS011;5616;42.692;23.312;2023-04-03T14:02:11;5.33;;;4.00;;
11123;SDS011;5616;42.692;23.312;2023-04-03T14:04:47;8.33;;;4.60;;
11123;SDS011;5616;42.692;23.312;2023-04-03T14:07:17;4.60;;;4.00;;
11123;SDS011;5616;42.692;23.312;2023-04-03T14:09:45;5.10;;;4.40;;
11123;SDS011;5616;42.692;23.312;2023-04-03T14:12:14;6.27;;;4.40;;
11123;SDS011;5616;42.692;23.312;2023-04-03T14:14:44;4.90;;;4.13;;
11123;SDS011;5616;42.692;23.312;2023-04-03T14:17:15;5.75;;;5.15;;
11123;SDS011;5616;42.692;23.312;2023-04-03T14:19:44;4.93;;;4.50;;
11123;SDS011;5616;42.692;23.312;2023-04-03T14:22:14;6.40;;;5.30;;
11123;SDS011;5616;42.692;23.312;2023-04-03T14:24:42;5.80;;;4.90;;
11123;SDS011;5616;42.692;23.312;2023-04-03T14:27:12;5.83;;;4.90;;
11123;SDS011;5616;42.692;23.312;2023-04-03T14:29:42;7.57;;;5.40;;
11123;SDS011;5616;42.692;23.312;2023-04-03T14:32:10;6.77;;;5.13;;
11123;SDS011;5616;42.692;23.312;2023-04-03T14:34:39;6.73;;;5.00;;
11123;SDS011;5616;42.692;23.312;2023-04-03T14:37:09;5.63;;;5.03;;
11123;SDS011;5616;42.692;23.312;2023-04-03T14:39:37;8.93;;;5.63;;
11123;SDS011;5616;42.692;23.312;2023-04-03T14:42:04;6.50;;;4.53;;
11123;SDS011;5616;42.692;23.312;2023-04-03T14:44:31;6.03;;;5.37;;
11123;SDS011;5616;42.692;23.312;2023-04-03T14:46:58;4.83;;;4.33;;
11123;SDS011;5616;42.692;23.312;2023-04-03T14:49:27;5.87;;;4.60;;
11123;SDS011;5616;42.692;23.312;2023-04-03T14:51:56;4.83;;;4.33;;
11123;SDS011;5616;42.692;23.312;2023-04-03T14:54:23;7.07;;;4.97;;
11123;SDS011;5616;42.692;23.312;2023-04-03T14:56:52;5.80;;;4.90;;
11123;SDS011;5616;42.692;23.312;2023-04-03T14:59:21;4.77;;;4.37;;
11123;SDS011;5616;42.692;23.312;2023-04-03T15:01:49;5.40;;;4.13;;
11123;SDS011;5616;42.692;23.312;2023-04-03T15:04:16;7.80;;;4.10;;
11123;SDS011;5616;42.692;23.312;2023-04-03T15:06:44;4.37;;;3.97;;
11123;SDS011;5616;42.692;23.312;2023-04-03T15:09:16;4.67;;;3.60;;
11123;SDS011;5616;42.692;23.312;2023-04-03T15:11:47;5.47;;;3.70;;